Time;durP1;ratioP1;P1;durP2;ratioP2;P2;SDS_P1;SDS_P2;PMS_P1;PMS_P2;Temp;Humidity;BMP_temperature;BMP_pressure;BME280_temperature;BME280_humidity;BME280_pressure;Samples;Min_cycle;Max_cycle;Signal;HPM_P1;HPM_P2
2022/04/02 00:00:17;;;;;;;5.47;1.33;;;;;;;;;;4937502;29;20102;-71
2022/04/02 00:02:44;;;;;;;4.72;1.40;;;;;;;;;;4937354;29;20483;-72
2022/04/02 00:05:10;;;;;;;4.82;1.20;;;;;;;;;;4937237;29;20534;-72
2022/04/02 00:07:37;;;;;;;4.45;1.50;;;;;;;;;;4937268;29;20031;-72
2022/04/02 00:10:05;;;;;;;6.15;1.40;;;;;;;;;;4937508;29;20467;-71
2022/04/02 00:12:32;;;;;;;5.35;1.50;;;;;;;;;;4935915;29;20071;-71
2022/04/02 00:14:57;;;;;;;6.38;1.50;;;;;;;;;;4918183;29;20036;-71
2022/04/02 00:17:24;;;;;;;6.60;1.50;;;;;;;;;;4931987;29;20027;-71
2022/04/02 00:19:50;;;;;;;7.32;1.85;;;;;;;;;;4937259;29;20119;-70
2022/04/02 00:22:16;;;;;;;3.58;1.33;;;;;;;;;;4935563;29;20122;-71
2022/04/02 00:24:42;;;;;;;5.90;1.55;;;;;;;;;;4936828;29;20031;-71
2022/04/02 00:27:09;;;;;;;5.72;1.70;;;;;;;;;;4937134;29;20043;-72
2022/04/02 00:29:38;;;;;;;9.68;1.70;;;;;;;;;;4935683;29;20126;-71
2022/04/02 00:32:06;;;;;;;10.63;1.80;;;;;;;;;;4937417;29;20039;-71
2022/04/02 00:34:32;;;;;;;10.07;1.73;;;;;;;;;;4936919;29;20024;-71
2022/04/02 00:36:58;;;;;;;6.00;1.63;;;;;;;;;;4937084;29;20028;-71
2022/04/02 00:39:24;;;;;;;8.27;1.63;;;;;;;;;;4936753;29;20110;-71
2022/04/02 00:41:50;;;;;;;6.93;2.40;;;;;;;;;;4936822;29;20611;-72
2022/04/02 00:44:21;;;;;;;7.63;1.80;;;;;;;;;;4935348;29;20123;-71
2022/04/02 00:46:48;;;;;;;6.93;1.80;;;;;;;;;;4951114;29;20479;-71
2022/04/02 00:49:14;;;;;;;6.43;1.98;;;;;;;;;;4936122;29;20118;-72
2022/04/02 00:51:42;;;;;;;9.35;2.20;;;;;;;;;;4936212;29;20038;-71
2022/04/02 00:54:14;;;;;;;5.60;2.00;;;;;;;;;;4935268;29;20106;-71
2022/04/02 00:56:41;;;;;;;4.43;1.55;;;;;;;;;;4936264;29;20134;-70
2022/04/02 00:59:08;;;;;;;5.60;1.63;;;;;;;;;;4935220;29;20474;-71
2022/04/02 01:01:37;;;;;;;5.43;1.88;;;;;;;;;;4935230;29;20035;-71
2022/04/02 01:04:04;;;;;;;7.75;1.77;;;;;;;;;;4935252;29;20030;-72
2022/04/02 01:06:39;;;;;;;3.75;1.88;;;;;;;;;;4934791;29;20036;-71
2022/04/02 01:09:09;;;;;;;4.45;1.50;;;;;;;;;;4935214;29;20047;-71
2022/04/02 01:11:37;;;;;;;6.07;1.95;;;;;;;;;;4935237;29;20042;-72
2022/04/02 01:14:03;;;;;;;5.90;1.60;;;;;;;;;;4935531;29;20131;-70
2022/04/02 01:16:30;;;;;;;8.60;1.90;;;;;;;;;;4936958;29;20023;-72
2022/04/02 01:19:04;;;;;;;5.15;1.40;;;;;;;;;;4935743;29;20083;-71
2022/04/02 01:21:31;;;;;;;4.25;1.50;;;;;;;;;;4934945;29;20484;-71
2022/04/02 01:24:03;;;;;;;8.07;1.58;;;;;;;;;;4935319;29;20035;-71
2022/04/02 01:26:31;;;;;;;4.22;1.50;;;;;;;;;;4935075;29;20044;-71
2022/04/02 01:29:08;;;;;;;3.80;1.40;;;;;;;;;;4934810;29;20048;-72
2022/04/02 01:31:45;;;;;;;5.55;1.42;;;;;;;;;;4934409;29;20090;-71
2022/04/02 01:34:14;;;;;;;8.20;1.85;;;;;;;;;;4934600;29;20031;-72
2022/04/02 01:36:42;;;;;;;5.97;1.67;;;;;;;;;;4934453;29;20028;-70
2022/04/02 01:39:18;;;;;;;5.93;1.40;;;;;;;;;;4934184;29;20032;-72
2022/04/02 01:41:45;;;;;;;4.70;1.77;;;;;;;;;;4934104;29;20067;-71
2022/04/02 01:44:15;;;;;;;4.63;1.40;;;;;;;;;;4934351;29;20082;-69
2022/04/02 01:46:41;;;;;;;7.18;1.73;;;;;;;;;;4933686;29;20042;-70
2022/04/02 01:49:07;;;;;;;4.95;1.65;;;;;;;;;;4934798;29;20031;-71
2022/04/02 01:51:34;;;;;;;4.28;1.40;;;;;;;;;;4934141;29;20479;-69
2022/04/02 01:54:02;;;;;;;6.13;1.50;;;;;;;;;;4934417;29;20040;-70
2022/04/02 01:56:28;;;;;;;4.47;1.23;;;;;;;;;;4935622;29;20110;-71
2022/04/02 01:58:58;;;;;;;5.38;1.45;;;;;;;;;;4935640;29;20032;-72
2022/04/02 02:01:27;;;;;;;11.52;2.00;;;;;;;;;;4933906;29;20075;-71
2022/04/02 02:03:53;;;;;;;8.95;1.90;;;;;;;;;;4934018;29;20064;-71
2022/04/02 02:06:19;;;;;;;8.13;1.85;;;;;;;;;;4935607;29;20027;-70
2022/04/02 02:08:48;;;;;;;8.90;2.10;;;;;;;;;;4933833;29;20493;-69
2022/04/02 02:11:41;;;;;;;9.93;2.00;;;;;;;;;;4935227;29;20036;-70
2022/04/02 02:14:19;;;;;;;8.60;2.38;;;;;;;;;;4935129;29;20043;-70
2022/04/02 02:16:48;;;;;;;8.73;2.95;;;;;;;;;;4934020;29;20124;-71
2022/04/02 02:19:16;;;;;;;6.65;2.03;;;;;;;;;;4933663;29;20036;-69
2022/04/02 02:21:42;;;;;;;6.60;2.03;;;;;;;;;;4917942;29;20360;-70
2022/04/02 02:24:16;;;;;;;6.80;1.85;;;;;;;;;;4935025;29;20562;-72
2022/04/02 02:26:42;;;;;;;5.90;1.63;;;;;;;;;;4934961;29;20153;-71
2022/04/02 02:29:08;;;;;;;5.00;1.70;;;;;;;;;;4933429;29;20051;-72
2022/04/02 02:31:38;;;;;;;5.03;1.88;;;;;;;;;;4933590;29;20042;-69
2022/04/02 02:37:03;;;;;;;6.82;2.00;;;;;;;;;;4920421;29;20055;-71
2022/04/02 02:39:30;;;;;;;7.13;1.95;;;;;;;;;;4934817;29;20669;-70
2022/04/02 02:42:17;;;;;;;8.75;2.15;;;;;;;;;;4933472;29;20067;-72
2022/04/02 02:44:51;;;;;;;;;;;;;;;;;;4933418;29;20039;-70
2022/04/02 02:47:20;;;;;;;7.50;2.33;;;;;;;;;;4948820;28;20412;-71
2022/04/02 02:49:46;;;;;;;5.63;1.90;;;;;;;;;;4932943;29;20059;-71
2022/04/02 02:52:18;;;;;;;8.85;2.67;;;;;;;;;;4933664;29;20039;-70
2022/04/02 02:54:45;;;;;;;12.13;2.45;;;;;;;;;;4934540;29;20487;-71
2022/04/02 02:57:11;;;;;;;11.95;2.80;;;;;;;;;;4934913;29;20095;-71
2022/04/02 02:59:38;;;;;;;8.63;2.78;;;;;;;;;;4937286;29;20039;-71
2022/04/02 03:02:04;;;;;;;16.02;2.53;;;;;;;;;;4937074;29;20434;-71
2022/04/02 03:04:31;;;;;;;9.35;2.08;;;;;;;;;;4937129;29;20047;-72
2022/04/02 03:07:03;;;;;;;12.38;3.03;;;;;;;;;;4938202;29;20024;-72
2022/04/02 03:09:32;;;;;;;27.02;4.47;;;;;;;;;;4937268;29;20243;-71
2022/04/02 03:12:00;;;;;;;23.88;3.00;;;;;;;;;;4937239;29;20032;-71
2022/04/02 03:14:26;;;;;;;13.60;2.75;;;;;;;;;;4937041;29;20138;-70
2022/04/02 03:16:52;;;;;;;6.35;2.08;;;;;;;;;;4938249;29;20111;-71
2022/04/02 03:19:18;;;;;;;10.25;2.45;;;;;;;;;;4936254;29;20502;-69
2022/04/02 03:21:45;;;;;;;26.65;4.60;;;;;;;;;;4936706;29;20450;-71
2022/04/02 03:24:12;;;;;;;14.25;3.88;;;;;;;;;;4936433;29;20487;-70
2022/04/02 03:26:39;;;;;;;10.73;2.28;;;;;;;;;;4936747;29;20031;-71
2022/04/02 03:29:18;;;;;;;13.90;3.22;;;;;;;;;;4936386;29;20517;-70
2022/04/02 03:31:46;;;;;;;12.20;3.00;;;;;;;;;;4937846;29;20411;-70
2022/04/02 03:34:13;;;;;;;15.98;3.22;;;;;;;;;;4936682;29;20054;-71
2022/04/02 03:36:41;;;;;;;18.52;4.07;;;;;;;;;;4936700;29;20034;-71
2022/04/02 03:39:06;;;;;;;11.20;2.42;;;;;;;;;;4938259;29;20039;-70
2022/04/02 03:41:32;;;;;;;7.43;2.70;;;;;;;;;;4937576;29;20035;-70
2022/04/02 03:44:01;;;;;;;7.50;2.30;;;;;;;;;;4933160;29;20015;-70
2022/04/02 03:49:15;;;;;;;14.88;2.67;;;;;;;;;;4916626;29;20127;-69
2022/04/02 03:51:42;;;;;;;26.50;4.53;;;;;;;;;;4945457;28;20488;-71
2022/04/02 03:54:13;;;;;;;32.13;4.18;;;;;;;;;;4914675;29;20067;-71
2022/04/02 03:56:43;;;;;;;23.38;3.88;;;;;;;;;;4917052;29;20066;-68
2022/04/02 03:59:12;;;;;;;12.35;3.05;;;;;;;;;;4916661;29;20055;-69
2022/04/02 04:01:41;;;;;;;13.77;2.88;;;;;;;;;;4926722;29;20340;-70
2022/04/02 04:04:06;;;;;;;7.35;2.17;;;;;;;;;;4932583;29;20032;-71
2022/04/02 04:06:32;;;;;;;6.45;2.67;;;;;;;;;;4934388;29;20035;-70
2022/04/02 04:08:58;;;;;;;12.80;2.72;;;;;;;;;;4939012;29;20031;-70
2022/04/02 04:11:26;;;;;;;18.63;3.85;;;;;;;;;;4943242;29;20493;-70
2022/04/02 04:13:53;;;;;;;14.25;3.40;;;;;;;;;;4936570;29;20538;-70
2022/04/02 04:16:21;;;;;;;18.30;4.95;;;;;;;;;;4936591;29;20376;-69
2022/04/02 04:18:47;;;;;;;25.05;4.78;;;;;;;;;;4936496;29;20063;-71
2022/04/02 04:21:14;;;;;;;13.40;3.70;;;;;;;;;;4936166;29;20462;-69
2022/04/02 04:23:45;;;;;;;14.52;2.90;;;;;;;;;;4936205;29;20129;-69
2022/04/02 04:26:12;;;;;;;6.93;1.92;;;;;;;;;;4936572;29;20042;-71
2022/04/02 04:28:40;;;;;;;19.98;3.90;;;;;;;;;;4936632;29;20130;-72
2022/04/02 04:31:08;;;;;;;14.35;2.90;;;;;;;;;;4936677;29;20127;-71
2022/04/02 04:33:38;;;;;;;7.82;2.50;;;;;;;;;;4937664;29;20040;-71
2022/04/02 04:36:04;;;;;;;10.38;2.63;;;;;;;;;;4932818;29;20038;-72
2022/04/02 04:38:30;;;;;;;11.05;3.13;;;;;;;;;;4928812;29;20095;-73
2022/04/02 04:41:02;;;;;;;8.57;3.13;;;;;;;;;;4946580;28;20106;-73
2022/04/02 04:43:29;;;;;;;12.48;4.30;;;;;;;;;;4932419;29;20175;-74
2022/04/02 04:45:55;;;;;;;15.68;3.10;;;;;;;;;;4931700;29;20036;-72
2022/04/02 04:48:23;;;;;;;16.58;3.40;;;;;;;;;;4926679;29;20071;-74
2022/04/02 04:50:53;;;;;;;14.85;4.13;;;;;;;;;;4932612;29;20025;-73
2022/04/02 04:53:20;;;;;;;15.57;3.33;;;;;;;;;;4930805;29;20046;-71
2022/04/02 04:55:48;;;;;;;10.35;2.55;;;;;;;;;;4935807;29;20482;-73
2022/04/02 04:58:17;;;;;;;15.13;3.08;;;;;;;;;;4936311;29;20058;-74
2022/04/02 05:00:44;;;;;;;24.23;4.68;;;;;;;;;;4934669;29;20043;-72
2022/04/02 05:03:12;;;;;;;12.63;3.63;;;;;;;;;;4947345;28;20039;-75
2022/04/02 05:05:42;;;;;;;16.42;3.90;;;;;;;;;;4935307;29;20040;-73
2022/04/02 05:08:13;;;;;;;15.82;3.15;;;;;;;;;;4935674;29;20114;-73
2022/04/02 05:10:42;;;;;;;23.92;4.40;;;;;;;;;;4935789;29;20471;-74
2022/04/02 05:13:14;;;;;;;12.38;3.05;;;;;;;;;;4935204;29;20114;-73
2022/04/02 05:15:44;;;;;;;8.07;2.80;;;;;;;;;;4935819;29;20094;-74
2022/04/02 05:18:13;;;;;;;16.13;3.30;;;;;;;;;;4935969;29;20123;-74
2022/04/02 05:20:40;;;;;;;20.00;3.17;;;;;;;;;;4919207;29;20438;-72
2022/04/02 05:23:07;;;;;;;11.88;2.72;;;;;;;;;;4935648;29;20491;-74
2022/04/02 05:25:35;;;;;;;8.73;2.38;;;;;;;;;;4932208;29;20035;-74
2022/04/02 05:28:04;;;;;;;7.63;2.35;;;;;;;;;;4910915;29;20055;-74
2022/04/02 05:30:39;;;;;;;6.60;2.10;;;;;;;;;;4951330;28;20048;-74
2022/04/02 05:33:06;;;;;;;18.90;3.88;;;;;;;;;;4935283;29;20123;-73
2022/04/02 05:35:33;;;;;;;19.10;3.00;;;;;;;;;;4951055;29;20067;-73
2022/04/02 05:37:59;;;;;;;13.45;2.10;;;;;;;;;;4935199;29;20134;-73
2022/04/02 05:40:24;;;;;;;7.47;1.85;;;;;;;;;;4936675;29;20023;-73
2022/04/02 05:42:50;;;;;;;4.72;1.40;;;;;;;;;;4935132;29;20035;-73
2022/04/02 05:45:16;;;;;;;4.85;1.67;;;;;;;;;;4935017;29;20657;-77
2022/04/02 05:47:50;;;;;;;4.90;1.10;;;;;;;;;;4934697;29;20406;-73
2022/04/02 05:50:17;;;;;;;2.45;1.30;;;;;;;;;;4936555;29;20039;-73
2022/04/02 05:52:43;;;;;;;7.43;1.50;;;;;;;;;;4936342;29;20043;-74
2022/04/02 05:55:11;;;;;;;3.05;1.13;;;;;;;;;;4935938;29;20032;-75
2022/04/02 05:57:39;;;;;;;7.57;2.03;;;;;;;;;;4936171;29;20487;-75
2022/04/02 06:00:06;;;;;;;7.60;1.70;;;;;;;;;;4935871;29;20067;-74
2022/04/02 06:02:40;;;;;;;5.10;1.50;;;;;;;;;;4935941;29;20036;-74
2022/04/02 06:05:08;;;;;;;5.25;1.08;;;;;;;;;;4935918;29;20038;-75
2022/04/02 06:07:34;;;;;;;8.35;1.80;;;;;;;;;;4928322;29;20034;-74
2022/04/02 06:10:02;;;;;;;6.80;1.80;;;;;;;;;;4934401;29;20039;-74
2022/04/02 06:12:30;;;;;;;7.20;1.65;;;;;;;;;;4933842;29;20567;-75
2022/04/02 06:14:56;;;;;;;4.90;1.90;;;;;;;;;;4935173;29;20039;-74
2022/04/02 06:17:22;;;;;;;5.13;2.00;;;;;;;;;;4935340;29;20024;-74
2022/04/02 06:19:47;;;;;;;7.82;2.00;;;;;;;;;;4935550;29;20042;-74
2022/04/02 06:22:13;;;;;;;5.88;1.65;;;;;;;;;;4935520;29;20030;-73
2022/04/02 06:24:40;;;;;;;4.55;1.50;;;;;;;;;;4935385;29;20471;-74
2022/04/02 06:27:06;;;;;;;8.32;2.20;;;;;;;;;;4935542;29;20042;-73
2022/04/02 06:29:32;;;;;;;5.15;1.42;;;;;;;;;;4935140;29;20047;-75
2022/04/02 06:31:58;;;;;;;6.00;1.80;;;;;;;;;;4935167;29;20050;-75
2022/04/02 06:34:24;;;;;;;4.65;1.35;;;;;;;;;;4935013;29;20036;-75
2022/04/02 06:36:50;;;;;;;9.75;1.75;;;;;;;;;;4932947;29;20036;-74
2022/04/02 06:39:16;;;;;;;5.85;1.67;;;;;;;;;;4934018;29;20048;-74
2022/04/02 06:41:42;;;;;;;16.77;2.80;;;;;;;;;;4935734;29;20386;-75
2022/04/02 06:44:08;;;;;;;10.15;2.90;;;;;;;;;;4934709;29;20121;-73
2022/04/02 06:46:35;;;;;;;10.43;1.63;;;;;;;;;;4934830;29;20107;-75
2022/04/02 06:49:01;;;;;;;8.07;1.73;;;;;;;;;;4934847;29;20075;-74
2022/04/02 06:51:27;;;;;;;4.82;1.23;;;;;;;;;;4934903;29;20066;-76
2022/04/02 06:53:53;;;;;;;3.15;1.17;;;;;;;;;;4934979;29;20471;-75
2022/04/02 06:56:19;;;;;;;5.03;1.33;;;;;;;;;;4935206;29;20511;-75
2022/04/02 06:58:45;;;;;;;6.00;1.65;;;;;;;;;;4934066;29;20040;-75
2022/04/02 07:01:11;;;;;;;5.53;2.13;;;;;;;;;;4934244;29;20698;-75
2022/04/02 07:03:37;;;;;;;3.20;1.20;;;;;;;;;;4934620;29;20095;-75
2022/04/02 07:06:04;;;;;;;9.02;1.85;;;;;;;;;;4934718;29;20035;-74
2022/04/02 07:08:29;;;;;;;4.68;1.42;;;;;;;;;;4934666;29;20066;-72
2022/04/02 07:10:56;;;;;;;6.32;1.10;;;;;;;;;;4934906;29;20055;-72
2022/04/02 07:13:24;;;;;;;4.00;1.35;;;;;;;;;;4926805;29;20099;-73
2022/04/02 07:15:49;;;;;;;6.43;1.48;;;;;;;;;;4932016;29;20036;-73
2022/04/02 07:18:15;;;;;;;4.90;1.65;;;;;;;;;;4934658;29;20071;-75
2022/04/02 07:20:41;;;;;;;6.05;1.40;;;;;;;;;;4934602;29;20051;-73
2022/04/02 07:23:09;;;;;;;3.95;1.30;;;;;;;;;;4934246;29;20075;-74
2022/04/02 07:25:40;;;;;;;7.40;1.90;;;;;;;;;;4932444;29;20436;-74
2022/04/02 07:28:07;;;;;;;8.98;2.00;;;;;;;;;;4932232;29;20055;-74
2022/04/02 07:30:38;;;;;;;8.90;1.60;;;;;;;;;;4934577;29;20032;-75
2022/04/02 07:33:04;;;;;;;7.15;2.10;;;;;;;;;;4934169;29;20498;-73
2022/04/02 07:35:37;;;;;;;5.47;1.45;;;;;;;;;;4932604;29;20431;-75
2022/04/02 07:38:42;;;;;;;3.38;1.50;;;;;;;;;;4930141;29;20043;-74
2022/04/02 07:41:20;;;;;;;10.00;2.53;;;;;;;;;;4927284;29;20499;-73
2022/04/02 07:44:02;;;;;;;4.90;1.27;;;;;;;;;;4934542;29;20039;-75
2022/04/02 07:46:30;;;;;;;14.80;3.00;;;;;;;;;;4937496;29;20506;-73
2022/04/02 07:49:02;;;;;;;6.55;1.77;;;;;;;;;;4936700;29;20122;-74
2022/04/02 07:51:31;;;;;;;6.43;2.20;;;;;;;;;;4934892;29;20044;-75
2022/04/02 07:54:02;;;;;;;3.83;1.60;;;;;;;;;;4928236;29;20040;-73
2022/04/02 07:56:36;;;;;;;6.68;1.92;;;;;;;;;;4918423;29;20476;-78
2022/04/02 07:59:09;;;;;;;6.95;1.50;;;;;;;;;;4941935;29;20039;-76
2022/04/02 08:01:35;;;;;;;9.32;2.00;;;;;;;;;;4953437;28;20494;-74
2022/04/02 08:04:04;;;;;;;6.40;1.88;;;;;;;;;;4951301;28;20050;-74
2022/04/02 08:06:34;;;;;;;8.27;1.88;;;;;;;;;;4935741;29;20040;-73
2022/04/02 08:09:00;;;;;;;6.65;1.90;;;;;;;;;;4936147;29;20554;-75
2022/04/02 08:11:29;;;;;;;3.90;1.45;;;;;;;;;;4935662;29;20122;-75
2022/04/02 08:13:57;;;;;;;9.30;1.90;;;;;;;;;;4936924;29;20044;-76
2022/04/02 08:16:23;;;;;;;3.33;1.25;;;;;;;;;;4936596;29;20051;-75
2022/04/02 08:18:50;;;;;;;6.00;1.40;;;;;;;;;;4935419;29;20444;-76
2022/04/02 08:21:19;;;;;;;3.13;1.30;;;;;;;;;;4936052;29;20035;-78
2022/04/02 08:23:45;;;;;;;5.25;1.20;;;;;;;;;;4936028;29;20111;-74
2022/04/02 08:26:45;;;;;;;5.28;1.63;;;;;;;;;;4936188;29;20059;-76
2022/04/02 08:29:30;;;;;;;6.70;2.05;;;;;;;;;;4937172;29;20154;-74
2022/04/02 08:32:01;;;;;;;6.55;1.70;;;;;;;;;;4936829;29;20082;-76
2022/04/02 08:34:44;;;;;;;6.93;1.55;;;;;;;;;;4936750;29;20616;-75
2022/04/02 08:37:10;;;;;;;;;;;;;;;;;;4936228;29;20062;-76
2022/04/02 08:39:49;;;;;;;4.85;1.58;;;;;;;;;;4935373;29;20023;-76
2022/04/02 08:42:39;;;;;;;7.60;1.60;;;;;;;;;;4936880;29;20043;-75
2022/04/02 08:45:08;;;;;;;4.28;1.75;;;;;;;;;;4936732;29;20039;-75
2022/04/02 08:47:49;;;;;;;5.78;1.30;;;;;;;;;;4936978;29;20103;-74
2022/04/02 08:50:16;;;;;;;4.45;1.30;;;;;;;;;;4936819;29;20066;-76
2022/04/02 08:52:55;;;;;;;4.65;1.45;;;;;;;;;;4936978;29;20023;-73
2022/04/02 08:55:34;;;;;;;5.75;1.65;;;;;;;;;;4936559;29;20153;-75
2022/04/02 08:58:10;;;;;;;3.90;1.42;;;;;;;;;;4937047;29;20027;-75
2022/04/02 09:00:42;;;;;;;7.43;1.50;;;;;;;;;;4936423;29;20044;-74
2022/04/02 09:03:32;;;;;;;5.43;1.73;;;;;;;;;;4935278;29;20046;-76
2022/04/02 09:06:04;;;;;;;7.68;1.65;;;;;;;;;;4936694;29;20039;-75
2022/04/02 09:08:48;;;;;;;5.38;2.00;;;;;;;;;;4936707;29;20042;-76
2022/04/02 09:11:25;;;;;;;4.40;1.30;;;;;;;;;;4936429;29;20055;-76
2022/04/02 09:13:59;;;;;;;4.80;1.70;;;;;;;;;;4936151;29;20031;-75
2022/04/02 09:16:30;;;;;;;3.85;1.25;;;;;;;;;;4936291;29;20118;-75
2022/04/02 09:19:22;;;;;;;5.25;1.13;;;;;;;;;;4936316;29;20040;-74
2022/04/02 09:21:54;;;;;;;5.55;2.00;;;;;;;;;;4935813;29;20043;-74
2022/04/02 09:24:57;;;;;;;5.28;1.30;;;;;;;;;;4935834;29;20364;-74
2022/04/02 09:27:51;;;;;;;6.30;1.60;;;;;;;;;;4924203;29;20032;-72
2022/04/02 09:30:54;;;;;;;6.13;1.65;;;;;;;;;;4935938;29;20440;-73
2022/04/02 09:33:41;;;;;;;9.98;1.90;;;;;;;;;;4933031;29;20241;-76
2022/04/02 09:36:16;;;;;;;4.75;1.63;;;;;;;;;;4935497;29;20059;-73
2022/04/02 09:39:02;;;;;;;4.50;1.83;;;;;;;;;;4935586;29;20356;-74
2022/04/02 09:41:32;;;;;;;5.55;1.90;;;;;;;;;;4931672;29;20523;-73
2022/04/02 09:44:16;;;;;;;10.77;4.10;;;;;;;;;;4935493;29;20483;-74
2022/04/02 09:46:52;;;;;;;5.68;1.58;;;;;;;;;;4933401;28;20046;-74
2022/04/02 09:49:40;;;;;;;9.20;2.53;;;;;;;;;;4929547;29;20035;-77
2022/04/02 09:52:07;;;;;;;4.63;1.90;;;;;;;;;;4916209;29;20044;-75
2022/04/02 09:55:01;;;;;;;4.07;1.50;;;;;;;;;;4915373;29;20448;-77
2022/04/02 09:57:45;;;;;;;5.93;2.47;;;;;;;;;;4922438;29;20047;-76
2022/04/02 10:00:16;;;;;;;5.13;1.55;;;;;;;;;;4933342;29;20054;-73
2022/04/02 10:03:02;;;;;;;7.38;1.95;;;;;;;;;;4932746;29;20051;-73
2022/04/02 10:05:46;;;;;;;6.70;1.75;;;;;;;;;;4933401;29;20034;-75
2022/04/02 10:08:34;;;;;;;5.10;1.60;;;;;;;;;;4932459;29;20035;-73
2022/04/02 10:11:04;;;;;;;6.38;1.90;;;;;;;;;;4954417;28;20031;-72
2022/04/02 10:13:34;;;;;;;4.60;1.90;;;;;;;;;;4950680;28;20047;-77
2022/04/02 10:16:03;;;;;;;6.68;1.92;;;;;;;;;;4930228;29;20034;-73
2022/04/02 10:18:33;;;;;;;6.47;2.00;;;;;;;;;;4928082;29;20031;-73
2022/04/02 10:21:03;;;;;;;7.22;1.77;;;;;;;;;;4932118;29;20382;-72
2022/04/02 10:23:31;;;;;;;10.43;1.95;;;;;;;;;;4932134;29;20043;-76
2022/04/02 10:26:14;;;;;;;10.90;2.00;;;;;;;;;;4932640;29;20506;-76
2022/04/02 10:28:52;;;;;;;3.72;1.80;;;;;;;;;;4927436;29;20379;-74
2022/04/02 10:31:34;;;;;;;7.18;1.38;;;;;;;;;;4931992;29;20070;-77
2022/04/02 10:34:24;;;;;;;3.42;1.60;;;;;;;;;;4931393;29;20074;-75
2022/04/02 10:37:00;;;;;;;3.03;1.40;;;;;;;;;;4919652;29;20150;-77
2022/04/02 10:39:28;;;;;;;4.60;1.75;;;;;;;;;;4951031;29;20118;-78
2022/04/02 10:42:00;;;;;;;3.60;1.33;;;;;;;;;;4952277;28;20026;-72
2022/04/02 10:44:29;;;;;;;2.33;1.50;;;;;;;;;;4933818;29;20371;-77
2022/04/02 10:46:57;;;;;;;3.90;1.60;;;;;;;;;;4935994;29;20034;-77
2022/04/02 10:49:34;;;;;;;3.63;1.80;;;;;;;;;;4939687;29;20024;-76
2022/04/02 10:52:02;;;;;;;5.78;1.77;;;;;;;;;;4934047;28;20040;-73
2022/04/02 10:54:29;;;;;;;4.95;1.85;;;;;;;;;;4922254;29;20044;-69
2022/04/02 10:56:55;;;;;;;10.00;2.28;;;;;;;;;;4939092;29;20078;-70
2022/04/02 10:59:26;;;;;;;5.47;1.60;;;;;;;;;;4938958;28;20527;-72
2022/04/02 11:01:58;;;;;;;5.88;2.42;;;;;;;;;;4932053;29;20039;-70
2022/04/02 11:04:24;;;;;;;6.55;1.95;;;;;;;;;;4938706;28;20350;-73
2022/04/02 11:06:50;;;;;;;5.03;1.20;;;;;;;;;;4930660;28;20036;-72
2022/04/02 11:09:37;;;;;;;6.88;1.40;;;;;;;;;;4929569;29;20033;-70
2022/04/02 11:12:13;;;;;;;5.60;1.40;;;;;;;;;;4912777;29;20518;-73
2022/04/02 11:14:51;;;;;;;7.80;1.90;;;;;;;;;;4934862;29;20123;-71
2022/04/02 11:17:47;;;;;;;5.80;1.85;;;;;;;;;;4934170;29;20471;-72
2022/04/02 11:20:20;;;;;;;4.25;1.58;;;;;;;;;;4935327;29;20047;-73
2022/04/02 11:22:54;;;;;;;3.10;1.30;;;;;;;;;;4936160;29;20044;-72
2022/04/02 11:25:19;;;;;;;;;;;;;;;;;;4918850;29;20056;-71
2022/04/02 11:27:49;;;;;;;1.35;1.02;;;;;;;;;;4925735;29;19922;-72
2022/04/02 11:30:17;;;;;;;2.40;1.00;;;;;;;;;;4936273;29;20043;-71
2022/04/02 11:32:48;;;;;;;4.63;1.30;;;;;;;;;;4936642;29;20111;-72
2022/04/02 11:35:44;;;;;;;2.55;0.88;;;;;;;;;;4937836;29;20054;-71
2022/04/02 11:38:25;;;;;;;2.63;0.90;;;;;;;;;;4931084;29;20054;-72
2022/04/02 11:41:09;;;;;;;1.55;0.82;;;;;;;;;;4936596;29;20036;-73
2022/04/02 11:43:41;;;;;;;1.42;0.77;;;;;;;;;;4936394;29;20035;-73
2022/04/02 11:46:09;;;;;;;1.90;0.98;;;;;;;;;;4937348;29;20114;-71
2022/04/02 11:48:56;;;;;;;1.90;0.77;;;;;;;;;;4936900;29;20027;-72
2022/04/02 11:51:22;;;;;;;2.55;1.17;;;;;;;;;;4936058;29;20462;-71
2022/04/02 11:53:48;;;;;;;4.05;1.15;;;;;;;;;;4937001;29;20039;-71
2022/04/02 11:56:33;;;;;;;1.55;0.70;;;;;;;;;;4923700;29;20036;-71
2022/04/02 11:59:04;;;;;;;3.22;0.70;;;;;;;;;;4933721;29;20048;-72
2022/04/02 12:01:50;;;;;;;3.15;0.85;;;;;;;;;;4935933;29;20403;-71
2022/04/02 12:04:18;;;;;;;2.65;0.70;;;;;;;;;;4936908;29;20557;-71
2022/04/02 12:06:48;;;;;;;4.10;1.20;;;;;;;;;;4936313;29;20039;-70
2022/04/02 12:09:19;;;;;;;4.25;0.90;;;;;;;;;;4933517;29;20051;-71
2022/04/02 12:11:58;;;;;;;4.15;0.73;;;;;;;;;;4936118;29;20036;-71
2022/04/02 12:14:30;;;;;;;2.53;0.88;;;;;;;;;;4917243;29;20032;-71
2022/04/02 12:17:02;;;;;;;4.53;0.80;;;;;;;;;;4915997;29;20379;-74
2022/04/02 12:19:44;;;;;;;1.23;0.73;;;;;;;;;;4916767;29;20090;-73
2022/04/02 12:22:28;;;;;;;5.38;1.15;;;;;;;;;;4923941;29;20376;-71
2022/04/02 12:25:00;;;;;;;2.80;0.85;;;;;;;;;;4936690;29;20063;-71
2022/04/02 12:27:28;;;;;;;4.90;0.80;;;;;;;;;;4934874;29;20032;-71
2022/04/02 12:29:56;;;;;;;2.40;0.77;;;;;;;;;;4935639;29;20465;-71
2022/04/02 12:32:30;;;;;;;2.97;1.00;;;;;;;;;;4935331;29;20354;-73
2022/04/02 12:35:06;;;;;;;6.63;1.50;;;;;;;;;;4950724;28;20028;-73
2022/04/02 12:37:49;;;;;;;1.85;1.05;;;;;;;;;;4935825;29;20452;-71
2022/04/02 12:40:19;;;;;;;3.22;0.93;;;;;;;;;;4932245;29;20032;-69
2022/04/02 12:42:46;;;;;;;3.55;1.38;;;;;;;;;;4935801;29;20126;-72
2022/04/02 12:45:18;;;;;;;3.38;1.10;;;;;;;;;;4935694;29;20364;-78
2022/04/02 12:48:17;;;;;;;5.75;1.33;;;;;;;;;;4936397;29;20146;-71
2022/04/02 12:50:54;;;;;;;3.67;1.00;;;;;;;;;;4935663;29;20050;-72
2022/04/02 12:53:41;;;;;;;3.15;1.10;;;;;;;;;;4935684;29;20514;-71
2022/04/02 12:56:19;;;;;;;3.88;0.90;;;;;;;;;;4934657;29;20040;-75
2022/04/02 12:58:49;;;;;;;2.97;1.30;;;;;;;;;;4934351;29;20490;-74
2022/04/02 13:01:15;;;;;;;2.83;1.10;;;;;;;;;;4934970;29;20028;-76
2022/04/02 13:03:45;;;;;;;6.65;1.10;;;;;;;;;;4934505;29;20348;-76
2022/04/02 13:06:19;;;;;;;4.72;1.40;;;;;;;;;;4933882;29;20364;-72
2022/04/02 13:09:01;;;;;;;1.92;1.08;;;;;;;;;;4933775;29;20105;-73
2022/04/02 13:11:48;;;;;;;10.13;1.65;;;;;;;;;;4928501;29;20032;-76
2022/04/02 13:14:19;;;;;;;6.03;1.30;;;;;;;;;;4929794;29;20039;-76
2022/04/02 13:16:48;;;;;;;3.75;1.00;;;;;;;;;;4933736;29;20047;-75
2022/04/02 13:22:14;;;;;;;5.00;1.20;;;;;;;;;;4943785;28;20067;-74
2022/04/02 13:24:57;;;;;;;2.45;1.27;;;;;;;;;;4932946;29;20110;-75
2022/04/02 13:27:32;;;;;;;;;;;;;;;;;;4931000;29;20035;-75
2022/04/02 13:30:16;;;;;;;3.08;1.10;;;;;;;;;;4932548;29;19918;-73
2022/04/02 13:33:37;;;;;;;2.28;0.80;;;;;;;;;;4934175;29;20361;-74
2022/04/02 13:36:12;;;;;;;8.65;1.25;;;;;;;;;;4910861;29;20029;-74
2022/04/02 13:39:02;;;;;;;2.67;1.10;;;;;;;;;;4929923;29;20487;-74
2022/04/02 13:41:29;;;;;;;2.38;1.00;;;;;;;;;;4932316;29;20136;-72
2022/04/02 13:44:01;;;;;;;2.55;0.90;;;;;;;;;;4931571;29;20083;-77
2022/04/02 13:46:29;;;;;;;2.25;1.00;;;;;;;;;;4933142;29;20122;-74
2022/04/02 13:48:58;;;;;;;2.13;1.08;;;;;;;;;;4947507;29;20027;-74
2022/04/02 13:51:53;;;;;;;6.03;1.35;;;;;;;;;;4940755;29;20042;-73
2022/04/02 13:54:27;;;;;;;1.85;0.73;;;;;;;;;;4927256;29;20101;-73
2022/04/02 13:56:59;;;;;;;2.50;1.30;;;;;;;;;;4933433;29;20114;-73
2022/04/02 13:59:36;;;;;;;3.25;1.10;;;;;;;;;;4933571;29;20036;-73
2022/04/02 14:02:04;;;;;;;2.45;1.40;;;;;;;;;;4928722;29;20047;-73
2022/04/02 14:04:37;;;;;;;10.40;1.65;;;;;;;;;;4932659;29;20026;-72
2022/04/02 14:07:08;;;;;;;6.40;1.10;;;;;;;;;;4933794;29;20494;-75
2022/04/02 14:09:35;;;;;;;8.45;1.20;;;;;;;;;;4934099;29;20036;-72
2022/04/02 14:12:09;;;;;;;6.25;1.50;;;;;;;;;;4933118;29;20099;-74
2022/04/02 14:14:55;;;;;;;2.38;0.63;;;;;;;;;;4933927;29;20431;-75
2022/04/02 14:17:28;;;;;;;1.25;0.68;;;;;;;;;;4933812;29;20086;-73
2022/04/02 14:20:03;;;;;;;2.88;0.90;;;;;;;;;;4933327;29;20122;-72
2022/04/02 14:22:30;;;;;;;6.82;1.38;;;;;;;;;;4933880;29;20438;-73
2022/04/02 14:25:08;;;;;;;2.10;1.20;;;;;;;;;;4933067;29;20051;-71
2022/04/02 14:28:02;;;;;;;5.45;1.23;;;;;;;;;;4934262;29;20055;-73
2022/04/02 14:30:58;;;;;;;6.47;0.98;;;;;;;;;;4932721;29;20051;-74
2022/04/02 14:33:45;;;;;;;6.93;1.23;;;;;;;;;;4932964;29;20479;-73
2022/04/02 14:36:29;;;;;;;4.78;1.05;;;;;;;;;;4932592;29;20035;-73
2022/04/02 14:39:21;;;;;;;3.45;0.80;;;;;;;;;;4939008;29;20557;-74
2022/04/02 14:42:07;;;;;;;9.30;1.20;;;;;;;;;;4933334;29;20039;-72
2022/04/02 14:45:15;;;;;;;5.85;1.88;;;;;;;;;;4932715;29;20125;-74
2022/04/02 14:47:47;;;;;;;2.78;0.93;;;;;;;;;;4931260;29;20035;-77
2022/04/02 14:50:31;;;;;;;1.77;0.60;;;;;;;;;;4933628;29;20091;-73
2022/04/02 14:53:16;;;;;;;3.55;0.90;;;;;;;;;;4932665;29;20123;-74
2022/04/02 14:55:51;;;;;;;2.55;0.88;;;;;;;;;;4933753;29;20415;-77
2022/04/02 14:58:54;;;;;;;2.25;0.80;;;;;;;;;;4933128;29;20091;-73
2022/04/02 15:01:41;;;;;;;3.35;0.90;;;;;;;;;;4932510;29;20040;-77
2022/04/02 15:04:37;;;;;;;2.67;1.00;;;;;;;;;;4914077;29;20047;-77
2022/04/02 15:07:37;;;;;;;2.50;0.93;;;;;;;;;;4913819;29;20069;-77
2022/04/02 15:10:22;;;;;;;2.90;1.17;;;;;;;;;;4924444;29;20064;-75
2022/04/02 15:12:54;;;;;;;1.80;0.90;;;;;;;;;;4931976;29;20036;-74
2022/04/02 15:15:21;;;;;;;2.05;0.88;;;;;;;;;;4931413;29;20111;-75
2022/04/02 15:18:01;;;;;;;1.98;0.90;;;;;;;;;;4931266;29;20028;-73
2022/04/02 15:20:28;;;;;;;2.35;0.90;;;;;;;;;;4927500;29;20503;-75